Time;durP1;ratioP1;P1;durP2;ratioP2;P2;SDS_P1;SDS_P2;PMS_P1;PMS_P2;Temp;Humidity;BMP_temperature;BMP_pressure;BME280_temperature;BME280_humidity;BME280_pressure;Samples;Min_cycle;Max_cycle;Signal;HPM_P1;HPM_P2
2023/10/18 03:02:30;;;;;;;1.67;1.13;;;23.30;34.70;;;;;;4918890;23;45866;-80
2023/10/18 03:04:56;;;;;;;1.73;1.30;;;23.20;34.70;;;;;;4895175;28;45125;-80
2023/10/18 03:07:23;;;;;;;1.63;1.20;;;23.20;34.70;;;;;;4940437;28;45477;-80
2023/10/18 03:09:53;;;;;;;1.63;1.23;;;23.20;34.70;;;;;;4906426;28;45726;-81
2023/10/18 03:12:21;;;;;;;2.85;1.35;;;23.20;34.70;;;;;;4870746;28;46269;-79
2023/10/18 03:14:54;;;;;;;2.55;1.60;;;23.20;34.70;;;;;;4892415;28;45094;-80
2023/10/18 03:17:23;;;;;;;1.38;1.20;;;23.30;34.70;;;;;;4882998;28;45328;-80
2023/10/18 03:19:56;;;;;;;1.67;1.33;;;23.30;34.70;;;;;;4892084;28;45467;-79
2023/10/18 03:22:25;;;;;;;2.50;1.50;;;23.20;34.70;;;;;;4921449;28;45603;-81
2023/10/18 03:24:53;;;;;;;1.50;1.38;;;23.20;34.60;;;;;;4905017;28;45537;-81
2023/10/18 03:27:20;;;;;;;3.33;1.40;;;23.20;34.60;;;;;;4873904;28;45383;-80
2023/10/18 03:29:46;;;;;;;2.20;1.48;;;23.30;34.60;;;;;;4903096;28;45550;-79
2023/10/18 03:32:19;;;;;;;2.40;1.23;;;23.20;34.60;;;;;;4891372;28;45843;-81
2023/10/18 03:34:45;;;;;;;1.75;1.30;;;23.20;34.60;;;;;;4864245;28;44908;-80
2023/10/18 03:37:21;;;;;;;2.00;1.50;;;23.20;34.60;;;;;;4852712;28;45673;-80
2023/10/18 03:39:49;;;;;;;1.98;1.40;;;23.20;34.60;;;;;;4904849;28;45264;-80
2023/10/18 03:42:30;;;;;;;2.08;1.40;;;23.20;34.60;;;;;;4882358;28;45894;-80
2023/10/18 03:44:57;;;;;;;2.38;1.35;;;23.20;34.60;;;;;;4903844;28;45121;-81
2023/10/18 03:47:24;;;;;;;1.88;1.33;;;23.20;34.50;;;;;;4891854;28;45513;-79
2023/10/18 03:49:53;;;;;;;1.77;1.30;;;23.20;34.50;;;;;;4904804;28;45737;-80
2023/10/18 03:52:22;;;;;;;1.70;1.60;;;23.20;34.50;;;;;;4899137;28;45698;-80
2023/10/18 03:57:27;;;;;;;1.88;1.50;;;23.20;34.50;;;;;;4860794;28;45442;-80
2023/10/18 03:59:55;;;;;;;2.28;1.40;;;23.20;34.50;;;;;;4865226;28;45458;-80
2023/10/18 04:02:30;;;;;;;1.65;1.45;;;23.20;34.50;;;;;;4849899;28;46483;-80
2023/10/18 04:05:00;;;;;;;2.40;1.70;;;23.20;34.50;;;;;;4889503;28;45175;-80
2023/10/18 04:07:26;;;;;;;1.53;1.30;;;23.20;34.50;;;;;;4896671;28;45349;-80
2023/10/18 04:12:25;;;;;;;2.20;1.58;;;23.20;34.40;;;;;;4884376;28;46074;-80
2023/10/18 04:14:58;;;;;;;2.53;1.40;;;23.20;34.40;;;;;;4896133;28;45050;-80
2023/10/18 04:17:37;;;;;;;1.83;1.60;;;23.20;34.40;;;;;;4907529;28;45607;-80
2023/10/18 04:22:48;;;;;;;2.00;1.47;;;23.20;34.40;;;;;;4880538;28;46411;-80
2023/10/18 04:25:25;;;;;;;1.98;1.50;;;23.20;34.40;;;;;;4878616;28;45237;-80
2023/10/18 04:27:52;;;;;;;2.72;1.73;;;23.10;34.30;;;;;;4884373;28;45310;-80
2023/10/18 04:30:22;;;;;;;1.70;1.50;;;23.20;34.30;;;;;;4831547;28;45519;-80
2023/10/18 04:32:53;;;;;;;1.85;1.40;;;23.20;34.40;;;;;;4889527;28;45217;-80
2023/10/18 04:35:25;;;;;;;1.95;1.50;;;23.10;34.30;;;;;;4882472;28;45323;-79
2023/10/18 04:37:54;;;;;;;1.80;1.38;;;23.10;34.30;;;;;;4893430;28;45155;-80
2023/10/18 04:40:23;;;;;;;2.45;1.48;;;23.10;34.30;;;;;;4888681;28;45825;-80
2023/10/18 04:42:54;;;;;;;1.75;1.50;;;23.10;34.30;;;;;;4896866;28;45940;-80
2023/10/18 04:45:23;;;;;;;2.70;1.50;;;23.10;34.30;;;;;;4875067;28;45295;-80
2023/10/18 04:47:58;;;;;;;1.77;1.35;;;23.10;34.30;;;;;;4870651;28;45585;-80
2023/10/18 04:50:32;;;;;;;1.50;1.40;;;23.10;34.30;;;;;;4888897;28;45544;-80
2023/10/18 04:52:59;;;;;;;2.47;1.50;;;23.10;34.30;;;;;;4896584;28;46296;-80
2023/10/18 04:55:32;;;;;;;2.40;1.42;;;23.10;34.20;;;;;;4874001;28;45438;-80
2023/10/18 04:57:58;;;;;;;1.88;1.42;;;23.10;34.20;;;;;;4885053;28;45818;-80
2023/10/18 05:00:50;;;;;;;1.80;1.40;;;23.10;34.60;;;;;;4876498;28;45471;-80
2023/10/18 05:03:17;;;;;;;2.20;1.60;;;23.10;34.20;;;;;;4893276;28;45241;-80
2023/10/18 05:05:52;;;;;;;2.33;1.30;;;23.10;34.20;;;;;;4900477;28;45443;-80
2023/10/18 05:08:18;;;;;;;3.03;1.53;;;23.10;34.20;;;;;;4864245;28;45430;-80
2023/10/18 05:10:46;;;;;;;2.85;1.50;;;23.10;33.90;;;;;;4894060;28;45653;-80
2023/10/18 05:13:19;;;;;;;4.05;1.67;;;23.10;34.10;;;;;;4886932;28;46057;-80
2023/10/18 05:15:50;;;;;;;2.72;1.50;;;23.00;34.10;;;;;;4888770;28;44859;-79
2023/10/18 05:18:16;;;;;;;5.55;1.45;;;23.10;34.10;;;;;;4883533;28;45645;-80
2023/10/18 05:20:42;;;;;;;3.10;1.60;;;23.00;34.10;;;;;;4858095;28;46158;-79
2023/10/18 05:23:07;;;;;;;3.37;1.60;;;23.00;34.10;;;;;;4874817;28;47364;-81
2023/10/18 05:25:38;;;;;;;4.57;1.60;;;23.10;34.10;;;;;;4859291;28;45577;-81
2023/10/18 05:28:28;;;;;;;2.93;1.43;;;23.00;34.00;;;;;;4860477;28;45360;-80
2023/10/18 05:43:47;;;;;;;1.90;1.50;;;23.00;34.00;;;;;;4882085;28;45442;-81
2023/10/18 05:46:12;;;;;;;1.65;1.45;;;23.00;34.00;;;;;;4880785;28;45430;-80
2023/10/18 05:48:41;;;;;;;3.80;1.40;;;23.00;34.00;;;;;;4882451;28;45539;-81
2023/10/18 05:51:26;;;;;;;3.30;1.45;;;23.00;33.90;;;;;;4883474;28;45262;-80
2023/10/18 05:53:59;;;;;;;2.13;1.40;;;23.00;34.00;;;;;;4897759;28;45470;-80
2023/10/18 05:56:34;;;;;;;2.93;1.73;;;23.00;33.90;;;;;;4866211;28;45297;-81
2023/10/18 06:01:49;;;;;;;3.80;1.47;;;23.00;33.90;;;;;;4873734;28;45359;-80
2023/10/18 06:04:23;;;;;;;2.38;1.50;;;23.00;33.90;;;;;;4874643;28;46182;-80
2023/10/18 06:06:51;;;;;;;2.17;1.40;;;23.00;33.90;;;;;;4860012;28;45362;-81
2023/10/18 06:09:26;;;;;;;4.13;1.60;;;23.00;34.00;;;;;;4898554;28;45087;-80
2023/10/18 06:11:54;;;;;;;2.47;1.58;;;23.00;33.90;;;;;;4884003;28;45339;-81
2023/10/18 06:14:20;;;;;;;2.80;1.38;;;23.00;33.90;;;;;;4853588;28;46258;-81
2023/10/18 06:16:51;;;;;;;2.28;1.60;;;23.00;33.90;;;;;;4889105;28;45130;-80
2023/10/18 06:19:22;;;;;;;2.80;1.60;;;23.00;33.90;;;;;;4901560;28;45397;-81
2023/10/18 06:21:57;;;;;;;2.07;1.50;;;23.00;33.90;;;;;;4896898;28;45944;-80
2023/10/18 06:24:26;;;;;;;1.90;1.60;;;23.00;33.90;;;;;;4878570;28;45332;-81
2023/10/18 06:26:52;;;;;;;2.03;1.50;;;23.00;33.90;;;;;;4886340;28;45315;-80
2023/10/18 06:29:23;;;;;;;3.55;1.80;;;23.00;33.90;;;;;;4887333;28;45484;-80
2023/10/18 06:31:49;;;;;;;3.22;1.70;;;23.00;33.90;;;;;;4871103;28;45675;-80
2023/10/18 06:34:37;;;;;;;3.38;1.80;;;23.00;33.90;;;;;;4860472;28;45400;-81
2023/10/18 06:37:07;;;;;;;2.53;1.67;;;23.00;33.90;;;;;;4866688;28;45593;-80
2023/10/18 06:39:37;;;;;;;3.53;1.80;;;23.00;33.90;;;;;;4913844;28;45377;-81
2023/10/18 06:42:06;;;;;;;2.30;1.57;;;23.00;33.90;;;;;;4897059;28;46061;-80
2023/10/18 06:44:34;;;;;;;3.05;1.67;;;23.00;33.90;;;;;;4871831;28;45477;-84
2023/10/18 06:47:06;;;;;;;2.38;1.67;;;23.00;33.90;;;;;;4854039;28;45524;-81
2023/10/18 06:49:32;;;;;;;2.50;1.90;;;23.00;33.90;;;;;;4898135;28;45652;-79
2023/10/18 06:52:00;;;;;;;2.40;1.88;;;23.00;33.90;;;;;;4878839;28;45121;-81
2023/10/18 06:54:31;;;;;;;2.40;1.80;;;23.00;33.90;;;;;;4901326;28;46542;-80
2023/10/18 06:56:58;;;;;;;1.83;1.52;;;23.00;33.90;;;;;;4880066;28;46501;-80
2023/10/18 06:59:28;;;;;;;2.45;1.63;;;22.90;33.80;;;;;;4879170;28;45074;-80
2023/10/18 07:01:54;;;;;;;2.53;1.80;;;23.00;33.90;;;;;;4897987;28;45050;-81
2023/10/18 07:04:27;;;;;;;2.75;1.85;;;23.00;33.90;;;;;;4907837;28;47039;-80
2023/10/18 07:06:54;;;;;;;2.08;1.88;;;23.00;33.90;;;;;;4899947;28;45730;-80
2023/10/18 07:09:25;;;;;;;2.33;1.55;;;23.00;33.90;;;;;;4892442;28;45303;-85
2023/10/18 07:11:57;;;;;;;2.53;1.70;;;23.00;33.90;;;;;;4850568;28;45706;-79
2023/10/18 07:14:26;;;;;;;2.72;1.60;;;22.90;33.80;;;;;;4869895;28;46323;-81
2023/10/18 07:16:55;;;;;;;1.98;1.75;;;22.90;33.80;;;;;;4878823;28;46561;-80
2023/10/18 07:21:50;;;;;;;2.65;1.92;;;22.90;33.80;;;;;;4883604;28;46108;-80
2023/10/18 07:24:20;;;;;;;3.58;1.55;;;23.00;33.90;;;;;;4857914;28;46224;-80
2023/10/18 07:26:46;;;;;;;2.90;1.70;;;23.00;33.90;;;;;;4862415;28;45378;-80
2023/10/18 07:29:14;;;;;;;2.28;1.52;;;22.90;33.90;;;;;;4878719;28;46320;-80
2023/10/18 07:31:42;;;;;;;3.03;1.90;;;22.90;33.80;;;;;;4894242;28;45272;-80
2023/10/18 07:34:17;;;;;;;2.67;1.83;;;22.90;33.80;;;;;;4902357;28;46106;-80
2023/10/18 07:36:44;;;;;;;2.92;1.80;;;22.90;33.90;;;;;;4889848;28;45481;-80
2023/10/18 07:39:11;;;;;;;3.85;1.58;;;22.90;33.80;;;;;;4871926;28;45529;-80
2023/10/18 07:41:37;;;;;;;2.43;1.70;;;22.90;33.90;;;;;;4865272;28;45195;-80
2023/10/18 07:44:06;;;;;;;2.20;1.70;;;22.90;33.90;;;;;;4862798;28;46142;-80
2023/10/18 07:46:50;;;;;;;2.95;1.90;;;22.90;33.90;;;;;;4891278;28;45174;-80
2023/10/18 07:49:15;;;;;;;3.22;1.60;;;22.90;33.90;;;;;;4885784;28;45391;-80
2023/10/18 07:51:56;;;;;;;2.47;1.73;;;22.90;33.90;;;;;;4874758;28;45429;-81
2023/10/18 07:54:22;;;;;;;2.85;1.67;;;22.90;33.90;;;;;;4890927;28;45286;-80
2023/10/18 07:56:50;;;;;;;1.90;1.63;;;22.90;33.90;;;;;;4847579;28;45245;-80
2023/10/18 07:59:31;;;;;;;2.15;1.60;;;22.90;33.90;;;;;;4854733;28;45768;-80
2023/10/18 08:02:13;;;;;;;2.17;1.90;;;22.90;33.90;;;;;;4882891;28;45454;-80
2023/10/18 08:04:42;;;;;;;2.05;1.75;;;22.90;33.90;;;;;;4885424;28;45513;-81
2023/10/18 08:07:12;;;;;;;3.15;1.75;;;22.90;33.90;;;;;;4902068;28;44886;-81
2023/10/18 08:09:41;;;;;;;2.05;1.60;;;22.80;33.90;;;;;;4914463;28;45392;-80
2023/10/18 08:12:08;;;;;;;2.92;1.83;;;22.80;33.90;;;;;;4885248;28;44788;-81
2023/10/18 08:14:34;;;;;;;3.72;1.73;;;22.90;33.90;;;;;;4897582;28;45607;-80
2023/10/18 08:17:09;;;;;;;2.58;1.83;;;22.80;33.90;;;;;;4875316;28;45553;-80
2023/10/18 08:19:44;;;;;;;2.25;1.90;;;22.90;34.00;;;;;;4884061;28;45117;-80
2023/10/18 08:24:37;;;;;;;2.80;1.70;;;22.80;33.90;;;;;;4897317;28;46406;-80
2023/10/18 08:27:09;;;;;;;2.10;1.70;;;22.90;34.00;;;;;;4882819;28;45264;-80
2023/10/18 08:29:35;;;;;;;2.60;1.73;;;22.90;34.00;;;;;;4895263;28;45696;-80
2023/10/18 08:32:18;;;;;;;2.60;1.60;;;22.90;34.00;;;;;;4882332;28;45550;-80
2023/10/18 08:34:44;;;;;;;2.40;1.80;;;22.90;34.00;;;;;;4915821;28;45080;-80
2023/10/18 08:37:13;;;;;;;3.20;2.15;;;22.80;34.00;;;;;;4900385;28;45555;-80
2023/10/18 08:40:07;;;;;;;2.35;1.67;;;22.80;34.00;;;;;;4871931;28;45239;-80
2023/10/18 08:42:33;;;;;;;2.25;1.60;;;22.80;34.00;;;;;;4863994;28;45823;-80
2023/10/18 08:45:23;;;;;;;2.15;1.80;;;22.80;34.00;;;;;;4880086;28;46252;-80
2023/10/18 08:47:49;;;;;;;3.05;1.80;;;22.80;34.00;;;;;;4900813;28;45058;-80
2023/10/18 08:50:15;;;;;;;2.22;1.80;;;22.80;34.00;;;;;;4860673;28;45446;-81
2023/10/18 08:52:47;;;;;;;2.33;1.67;;;22.80;34.00;;;;;;4896996;28;45173;-80
2023/10/18 08:55:19;;;;;;;2.15;1.60;;;22.80;34.00;;;;;;4889980;28;46457;-80
2023/10/18 08:57:48;;;;;;;2.83;1.90;;;22.80;34.10;;;;;;4879382;28;45494;-80
2023/10/18 09:01:02;;;;;;;2.72;1.92;;;22.80;34.00;;;;;;4841865;28;45536;-80
2023/10/18 09:03:10;;;;;;;3.20;2.00;;;22.80;34.00;;;;;;4879242;28;45290;-80
2023/10/18 09:05:36;;;;;;;1.83;1.63;;;22.80;34.10;;;;;;4897531;28;45701;-81
2023/10/18 09:08:03;;;;;;;1.67;1.50;;;22.80;34.10;;;;;;4900455;28;45339;-80
2023/10/18 09:15:49;;;;;;;4.13;1.90;;;22.80;34.10;;;;;;4895148;28;45639;-80
2023/10/18 09:18:15;;;;;;;3.50;1.67;;;22.80;34.10;;;;;;4857998;28;45174;-80
2023/10/18 09:20:43;;;;;;;2.33;1.70;;;22.80;34.10;;;;;;4867983;28;46438;-80
2023/10/18 09:23:19;;;;;;;2.10;1.70;;;22.80;34.10;;;;;;4881510;28;45561;-80
2023/10/18 09:26:00;;;;;;;2.13;1.70;;;22.80;34.10;;;;;;4885236;28;46698;-80
2023/10/18 09:28:25;;;;;;;2.58;1.98;;;22.80;34.10;;;;;;4889987;28;45415;-80
2023/10/18 09:31:00;;;;;;;2.00;1.60;;;22.80;34.10;;;;;;4871042;28;45302;-81
2023/10/18 09:33:31;;;;;;;2.30;1.80;;;22.80;34.10;;;;;;4879000;28;45349;-80
2023/10/18 09:36:01;;;;;;;2.55;1.80;;;22.80;34.10;;;;;;4860712;28;46266;-80
2023/10/18 09:38:59;;;;;;;2.15;1.80;;;22.80;34.20;;;;;;4880239;28;45066;-81
2023/10/18 09:41:30;;;;;;;1.98;1.63;;;22.80;34.10;;;;;;4877756;28;45519;-80
2023/10/18 09:44:00;;;;;;;2.22;1.80;;;22.80;34.10;;;;;;4901407;28;45965;-80
2023/10/18 09:46:27;;;;;;;1.70;1.60;;;22.80;34.20;;;;;;4855671;28;46528;-81
2023/10/18 09:48:52;;;;;;;2.83;1.90;;;22.80;34.10;;;;;;4903348;28;44906;-81
2023/10/18 09:51:23;;;;;;;2.10;1.45;;;22.80;34.10;;;;;;4863424;28;45703;-80
2023/10/18 09:53:53;;;;;;;1.83;1.60;;;22.80;34.20;;;;;;4885286;28;45304;-80
2023/10/18 09:56:27;;;;;;;2.73;1.70;;;22.80;34.20;;;;;;4883719;28;45166;-80
2023/10/18 09:59:05;;;;;;;2.30;1.73;;;22.80;34.20;;;;;;4908106;28;44991;-80
2023/10/18 10:04:18;;;;;;;2.50;1.80;;;22.80;34.20;;;;;;4889685;28;45290;-80
2023/10/18 10:06:47;;;;;;;2.20;1.70;;;22.80;34.30;;;;;;4879191;28;47191;-81
2023/10/18 10:09:14;;;;;;;1.90;1.67;;;22.80;34.20;;;;;;4887221;28;45369;-80
2023/10/18 10:11:46;;;;;;;2.30;1.70;;;22.80;34.20;;;;;;4862067;28;45263;-80
2023/10/18 10:14:15;;;;;;;1.85;1.60;;;22.80;34.30;;;;;;4858181;28;45264;-80
2023/10/18 10:17:06;;;;;;;2.00;1.60;;;22.80;34.30;;;;;;4875643;28;45998;-80
2023/10/18 10:19:36;;;;;;;2.60;1.80;;;22.80;34.30;;;;;;4881799;28;45335;-81
2023/10/18 10:22:05;;;;;;;1.70;1.40;;;22.80;34.30;;;;;;4878748;28;45275;-80
2023/10/18 10:25:04;;;;;;;2.45;1.67;;;22.80;34.30;;;;;;4896954;28;45550;-80
2023/10/18 10:32:54;;;;;;;2.05;1.60;;;22.80;34.40;;;;;;4893275;28;45613;-80
2023/10/18 10:35:24;;;;;;;2.08;1.70;;;22.80;34.40;;;;;;4864789;28;44791;-80
2023/10/18 10:37:54;;;;;;;2.78;1.75;;;22.80;34.40;;;;;;4881613;28;45965;-80
2023/10/18 10:43:08;;;;;;;2.00;1.50;;;22.80;34.40;;;;;;4877199;28;45553;-80
2023/10/18 10:45:53;;;;;;;1.93;1.60;;;22.80;34.40;;;;;;4886183;28;45304;-80
2023/10/18 10:51:06;;;;;;;2.70;1.70;;;22.80;34.40;;;;;;4891329;28;45266;-80
2023/10/18 10:53:49;;;;;;;3.00;1.70;;;22.80;34.40;;;;;;4883263;28;44889;-80
2023/10/18 10:56:17;;;;;;;2.15;1.60;;;22.80;34.50;;;;;;4870149;28;45248;-80
2023/10/18 11:04:28;;;;;;;2.33;1.60;;;22.80;34.50;;;;;;4901003;28;45336;-80
2023/10/18 11:07:00;;;;;;;2.67;1.63;;;22.80;34.50;;;;;;4883540;28;45373;-81
2023/10/18 11:09:33;;;;;;;1.63;1.30;;;22.80;34.50;;;;;;4888870;28;46648;-81
2023/10/18 11:12:04;;;;;;;1.83;1.40;;;22.80;34.50;;;;;;4883066;28;45743;-81
2023/10/18 11:14:30;;;;;;;2.28;1.60;;;22.80;34.50;;;;;;4876492;28;45250;-81
2023/10/18 11:19:45;;;;;;;2.17;1.40;;;22.80;34.50;;;;;;4900458;28;46778;-80
2023/10/18 11:22:11;;;;;;;2.15;1.40;;;22.80;34.50;;;;;;4901019;28;45222;-80
2023/10/18 11:24:39;;;;;;;1.80;1.30;;;22.80;34.60;;;;;;4859964;28;45345;-81
2023/10/18 11:27:08;;;;;;;3.38;1.48;;;22.80;34.60;;;;;;4887299;28;45867;-81
2023/10/18 11:29:38;;;;;;;1.60;1.30;;;22.80;34.60;;;;;;4884619;28;45592;-81
2023/10/18 11:32:06;;;;;;;2.30;1.45;;;22.80;34.60;;;;;;4866904;28;45226;-80
2023/10/18 11:34:33;;;;;;;2.25;1.50;;;22.80;34.60;;;;;;4873371;28;45443;-80
2023/10/18 11:37:02;;;;;;;1.87;1.40;;;22.80;34.60;;;;;;4906123;28;45083;-80
2023/10/18 11:39:34;;;;;;;2.03;1.60;;;22.80;34.60;;;;;;4886868;28;45419;-80
2023/10/18 11:42:00;;;;;;;2.03;1.70;;;22.80;34.70;;;;;;4884880;28;45522;-80
2023/10/18 11:44:27;;;;;;;2.30;1.50;;;22.80;34.60;;;;;;4889775;28;45373;-81
2023/10/18 11:46:57;;;;;;;1.80;1.42;;;22.80;34.70;;;;;;4873680;28;45708;-81
2023/10/18 11:49:32;;;;;;;2.40;1.50;;;22.80;34.60;;;;;;4868456;28;46021;-82
2023/10/18 11:51:58;;;;;;;1.95;1.63;;;22.80;34.60;;;;;;4846006;29;45513;-81
2023/10/18 11:54:33;;;;;;;1.98;1.50;;;22.80;34.70;;;;;;4889764;28;45742;-80
2023/10/18 11:57:06;;;;;;;1.58;1.38;;;22.80;35.30;;;;;;4886457;28;45069;-80
2023/10/18 11:59:48;;;;;;;2.17;1.60;;;22.80;34.70;;;;;;4885869;28;46561;-80
2023/10/18 12:02:14;;;;;;;2.77;1.30;;;22.70;34.60;;;;;;4877655;28;45386;-81
2023/10/18 12:04:40;;;;;;;2.10;1.50;;;22.80;34.70;;;;;;4873921;28;44788;-81
2023/10/18 12:07:08;;;;;;;2.33;1.70;;;22.80;34.70;;;;;;4871458;28;45016;-80
2023/10/18 12:09:42;;;;;;;1.70;1.25;;;22.80;34.70;;;;;;4869673;28;45978;-81
2023/10/18 12:12:19;;;;;;;1.88;1.60;;;22.80;34.70;;;;;;4870486;28;45538;-81
2023/10/18 12:14:48;;;;;;;2.03;1.47;;;22.80;34.80;;;;;;4878366;28;45423;-82
2023/10/18 12:17:14;;;;;;;1.60;1.40;;;22.80;34.80;;;;;;4852639;28;45481;-81
2023/10/18 12:19:40;;;;;;;1.92;1.42;;;22.70;34.70;;;;;;4871338;28;46447;-83
2023/10/18 12:22:10;;;;;;;2.40;1.45;;;22.70;34.70;;;;;;4876212;28;45244;-82
2023/10/18 12:24:36;;;;;;;2.05;1.40;;;22.70;34.70;;;;;;4886737;28;44720;-82
2023/10/18 12:29:47;;;;;;;1.90;1.50;;;22.70;34.80;;;;;;4899366;28;46500;-83
2023/10/18 12:32:30;;;;;;;1.40;1.27;;;22.80;34.90;;;;;;4868375;28;45274;-81
2023/10/18 12:34:57;;;;;;;1.98;1.40;;;22.80;34.90;;;;;;4894661;28;45253;-81
2023/10/18 12:37:24;;;;;;;1.63;1.30;;;22.80;34.90;;;;;;4896174;28;45866;-81
2023/10/18 12:39:50;;;;;;;1.50;1.20;;;22.80;34.90;;;;;;4850341;28;46171;-82
2023/10/18 12:42:19;;;;;;;1.77;1.40;;;22.80;34.90;;;;;;4901823;28;45218;-81
2023/10/18 12:44:48;;;;;;;1.80;1.42;;;22.80;34.90;;;;;;4919241;28;44826;-81
2023/10/18 12:47:19;;;;;;;2.15;1.45;;;22.70;34.90;;;;;;4892858;28;45232;-81
2023/10/18 12:49:50;;;;;;;2.15;1.38;;;22.80;34.90;;;;;;4879719;28;46427;-81
2023/10/18 12:57:54;;;;;;;1.55;1.30;;;22.80;35.00;;;;;;4890217;28;45345;-81
2023/10/18 13:00:32;;;;;;;1.58;1.20;;;22.80;35.00;;;;;;4879234;28;45731;-81
2023/10/18 13:05:40;;;;;;;1.90;1.27;;;22.80;35.00;;;;;;4866866;28;45166;-81
2023/10/18 13:08:22;;;;;;;1.58;1.10;;;22.80;35.00;;;;;;4868900;28;45084;-82
2023/10/18 13:13:31;;;;;;;1.75;1.38;;;22.80;35.00;;;;;;4899000;28;45354;-82
2023/10/18 13:15:57;;;;;;;1.55;1.27;;;22.80;35.00;;;;;;4876873;28;45696;-81
2023/10/18 13:18:27;;;;;;;1.52;1.40;;;22.80;35.00;;;;;;4866418;28;44907;-81
2023/10/18 13:20:55;;;;;;;1.80;1.38;;;22.80;35.70;;;;;;4876303;28;45900;-81
2023/10/18 13:23:27;;;;;;;1.70;1.30;;;22.80;35.10;;;;;;4869040;28;44944;-81
2023/10/18 13:25:54;;;;;;;1.20;1.10;;;22.80;35.10;;;;;;4863944;28;45581;-82
2023/10/18 13:28:36;;;;;;;1.67;1.23;;;22.80;35.10;;;;;;4898862;28;45170;-81
2023/10/18 13:31:06;;;;;;;1.85;1.30;;;22.80;35.10;;;;;;4881268;28;45426;-80
2023/10/18 13:33:33;;;;;;;2.08;1.40;;;22.70;35.10;;;;;;4878347;28;46008;-81
2023/10/18 13:36:05;;;;;;;1.70;1.23;;;22.80;35.10;;;;;;4876427;28;45309;-82
2023/10/18 13:38:30;;;;;;;1.60;1.20;;;22.80;35.10;;;;;;4913150;28;45209;-82
2023/10/18 13:40:59;;;;;;;1.27;1.13;;;22.80;35.10;;;;;;4895551;28;46250;-81
2023/10/18 13:43:25;;;;;;;1.60;1.20;;;22.80;35.10;;;;;;4886749;28;45162;-82
2023/10/18 13:45:58;;;;;;;1.35;1.17;;;22.80;35.30;;;;;;4875495;28;44856;-81
2023/10/18 13:48:25;;;;;;;1.73;1.35;;;22.80;35.20;;;;;;4889483;28;45392;-83
2023/10/18 13:50:53;;;;;;;1.50;1.20;;;22.80;35.20;;;;;;4881211;28;45180;-81
2023/10/18 13:53:22;;;;;;;1.63;1.25;;;22.80;35.20;;;;;;4883468;28;44682;-82
2023/10/18 13:55:48;;;;;;;1.17;1.00;;;22.80;35.20;;;;;;4898642;28;45547;-81
2023/10/18 13:58:14;;;;;;;1.30;1.20;;;22.80;35.20;;;;;;4858573;28;45309;-82
2023/10/18 14:00:43;;;;;;;2.25;1.40;;;22.80;35.20;;;;;;4896266;28;46446;-81
2023/10/18 14:03:09;;;;;;;1.90;1.45;;;22.80;35.30;;;;;;4891748;28;45713;-81
2023/10/18 14:05:40;;;;;;;1.10;1.00;;;22.80;35.20;;;;;;4874548;28;45512;-82
2023/10/18 14:08:07;;;;;;;1.13;1.00;;;22.80;35.20;;;;;;4882894;28;45476;-82
2023/10/18 14:10:35;;;;;;;1.87;1.30;;;22.80;35.20;;;;;;4881510;28;46027;-82
2023/10/18 14:13:06;;;;;;;1.67;1.17;;;22.80;35.20;;;;;;4855204;28;45340;-81
2023/10/18 14:15:32;;;;;;;1.33;1.20;;;22.80;35.30;;;;;;4891815;28;45229;-80
2023/10/18 14:18:00;;;;;;;1.30;1.10;;;22.80;35.30;;;;;;4919901;28;45564;-81
2023/10/18 14:20:38;;;;;;;1.65;1.20;;;22.80;35.30;;;;;;4894534;28;46321;-80
2023/10/18 14:23:07;;;;;;;1.40;1.00;;;22.80;35.30;;;;;;4864810;28;46196;-81
2023/10/18 14:25:32;;;;;;;1.42;1.20;;;22.80;35.30;;;;;;4865406;28;45359;-81
2023/10/18 14:27:58;;;;;;;1.90;1.10;;;22.80;35.70;;;;;;4872705;28;45346;-81
2023/10/18 14:30:27;;;;;;;2.67;1.20;;;22.80;35.40;;;;;;4883560;28;46114;-81
2023/10/18 14:32:58;;;;;;;1.60;1.20;;;22.80;35.30;;;;;;4858187;28;45353;-81
2023/10/18 14:35:25;;;;;;;1.60;1.20;;;22.80;35.30;;;;;;4869828;28;45202;-81
2023/10/18 14:37:51;;;;;;;1.58;1.40;;;22.70;35.30;;;;;;4884539;28;45501;-82
2023/10/18 14:40:20;;;;;;;1.30;1.07;;;22.70;35.30;;;;;;4874613;28;47124;-82
2023/10/18 14:42:50;;;;;;;1.90;1.30;;;22.80;35.40;;;;;;4850352;28;47871;-81
2023/10/18 14:45:16;;;;;;;1.60;1.20;;;22.80;35.40;;;;;;4896562;28;45470;-81
2023/10/18 14:47:42;;;;;;;1.27;1.17;;;22.70;35.40;;;;;;4899047;28;44984;-81
2023/10/18 14:50:10;;;;;;;1.40;1.20;;;22.80;35.40;;;;;;4895858;28;45528;-81
2023/10/18 14:52:42;;;;;;;1.87;1.20;;;22.80;35.40;;;;;;4887081;28;45284;-82
2023/10/18 14:55:29;;;;;;;1.25;1.02;;;22.70;35.40;;;;;;4896162;28;44809;-81
2023/10/18 14:57:55;;;;;;;1.10;1.00;;;22.70;35.40;;;;;;4898812;28;45240;-82
2023/10/18 15:00:21;;;;;;;1.20;1.10;;;22.70;35.40;;;;;;4897248;28;45360;-82
2023/10/18 15:02:50;;;;;;;1.98;1.15;;;22.70;35.40;;;;;;4878012;28;45339;-82
2023/10/18 15:05:23;;;;;;;1.40;1.08;;;22.70;35.40;;;;;;4877349;28;45330;-82
2023/10/18 15:07:48;;;;;;;1.53;1.17;;;22.70;35.50;;;;;;4887118;28;44797;-81
2023/10/18 15:10:15;;;;;;;1.37;1.10;;;22.70;35.50;;;;;;4893644;28;45815;-80
2023/10/18 15:12:41;;;;;;;1.40;1.20;;;22.70;35.50;;;;;;4886627;28;46173;-80
2023/10/18 15:15:10;;;;;;;1.35;1.17;;;22.70;35.50;;;;;;4880408;28;45204;-81
2023/10/18 15:17:37;;;;;;;1.30;1.10;;;22.70;35.50;;;;;;4870929;28;45400;-81
2023/10/18 15:20:06;;;;;;;3.05;1.40;;;22.70;35.50;;;;;;4880986;28;45511;-80
2023/10/18 15:22:33;;;;;;;1.40;1.30;;;22.70;35.50;;;;;;4882168;28;45061;-80
2023/10/18 15:25:01;;;;;;;1.63;1.27;;;22.70;35.50;;;;;;4882027;28;45298;-81
2023/10/18 15:27:30;;;;;;;1.80;1.17;;;22.80;36.20;;;;;;4894508;28;45387;-82
2023/10/18 15:29:55;;;;;;;1.55;1.10;;;22.70;35.50;;;;;;4899248;28;46259;-81
2023/10/18 15:32:22;;;;;;;1.40;1.00;;;22.70;35.60;;;;;;4855570;28;45972;-81
2023/10/18 15:34:48;;;;;;;1.48;1.27;;;22.70;35.60;;;;;;4894833;28;45422;-81
2023/10/18 15:37:14;;;;;;;1.80;1.30;;;22.70;35.60;;;;;;4891557;28;44954;-81
2023/10/18 15:39:41;;;;;;;1.42;1.10;;;22.70;35.60;;;;;;4895252;28;46497;-81
2023/10/18 15:42:09;;;;;;;2.95;1.40;;;22.70;35.60;;;;;;4894198;28;46303;-81
2023/10/18 15:44:37;;;;;;;1.45;1.20;;;22.70;35.60;;;;;;4871551;28;45339;-82
2023/10/18 15:47:03;;;;;;;1.55;1.15;;;22.70;35.60;;;;;;4857392;28;45960;-82
2023/10/18 15:49:29;;;;;;;1.90;1.20;;;22.70;35.60;;;;;;4871291;29;46361;-81
2023/10/18 15:51:56;;;;;;;1.55;1.25;;;22.70;35.70;;;;;;4879245;28;45286;-81
2023/10/18 15:54:23;;;;;;;1.47;1.20;;;22.70;35.60;;;;;;4895444;28;45320;-81
2023/10/18 15:56:49;;;;;;;1.50;1.20;;;22.70;35.60;;;;;;4872483;28;46870;-81
2023/10/18 15:59:17;;;;;;;2.40;1.70;;;22.70;35.70;;;;;;4898064;28;45250;-81
2023/10/18 16:01:44;;;;;;;7.05;4.63;;;22.60;35.60;;;;;;4843663;28;45773;-81
2023/10/18 16:04:10;;;;;;;7.85;5.90;;;22.60;35.60;;;;;;4851929;28;45612;-81
2023/10/18 16:06:36;;;;;;;8.25;5.90;;;22.70;35.60;;;;;;4888340;28;45024;-81
2023/10/18 16:09:09;;;;;;;7.43;5.43;;;22.70;35.60;;;;;;4881763;28;45582;-81
2023/10/18 16:11:35;;;;;;;7.55;4.85;;;22.60;35.50;;;;;;4850917;28;45625;-82
2023/10/18 16:14:03;;;;;;;6.93;4.28;;;22.70;35.60;;;;;;4879409;28;44652;-81
2023/10/18 16:16:29;;;;;;;5.10;3.90;;;22.70;35.50;;;;;;4887475;28;45359;-81
2023/10/18 16:18:55;;;;;;;4.60;3.67;;;22.70;35.50;;;;;;4880844;28;46284;-81
2023/10/18 16:21:23;;;;;;;5.97;3.30;;;22.70;35.40;;;;;;4910983;28;45591;-82
2023/10/18 16:23:50;;;;;;;5.30;3.60;;;22.60;35.30;;;;;;4873945;28;45390;-82
2023/10/18 16:26:42;;;;;;;4.35;2.92;;;22.70;35.40;;;;;;4881762;28;45534;-81
2023/10/18 16:29:08;;;;;;;3.97;3.00;;;22.70;35.30;;;;;;4873973;28;46205;-81
2023/10/18 16:31:34;;;;;;;5.00;2.90;;;22.70;35.30;;;;;;4895010;28;45324;-81
2023/10/18 16:34:00;;;;;;;4.10;2.92;;;22.80;35.30;;;;;;4860027;28;45512;-80
2023/10/18 16:36:25;;;;;;;5.63;3.00;;;22.70;35.20;;;;;;4875899;28;45284;-81
2023/10/18 16:38:54;;;;;;;4.07;2.73;;;22.80;35.20;;;;;;4851742;28;48297;-81
2023/10/18 16:41:20;;;;;;;4.50;2.85;;;22.80;35.20;;;;;;4889522;28;45164;-81
2023/10/18 16:43:46;;;;;;;3.67;2.63;;;22.80;35.20;;;;;;4872990;28;46367;-81
2023/10/18 16:46:13;;;;;;;3.63;2.60;;;22.80;35.20;;;;;;4866765;28;45241;-81
2023/10/18 16:48:49;;;;;;;4.35;2.60;;;22.90;35.30;;;;;;4861091;28;45853;-81
2023/10/18 16:51:15;;;;;;;5.22;2.95;;;22.90;35.20;;;;;;4838810;28;45232;-80
2023/10/18 16:53:42;;;;;;;3.97;2.90;;;22.90;35.20;;;;;;4858907;28;45263;-81
2023/10/18 16:56:08;;;;;;;4.43;2.63;;;22.90;35.10;;;;;;4856120;28;45223;-80
2023/10/18 16:58:35;;;;;;;4.20;2.60;;;22.90;35.10;;;;;;4860601;28;46733;-82
2023/10/18 17:01:17;;;;;;;3.85;2.50;;;22.90;35.10;;;;;;4836381;28;45546;-80
2023/10/18 17:03:44;;;;;;;3.10;2.50;;;23.00;35.00;;;;;;4870364;28;45381;-83
2023/10/18 17:06:12;;;;;;;3.60;2.80;;;23.00;35.10;;;;;;4858701;28;46301;-83
2023/10/18 17:08:38;;;;;;;3.95;2.65;;;23.00;35.00;;;;;;4846466;28;46195;-82
2023/10/18 17:11:09;;;;;;;3.95;2.78;;;23.00;35.00;;;;;;4872856;28;45210;-82
2023/10/18 17:13:36;;;;;;;3.85;2.70;;;23.10;35.00;;;;;;4878855;28;44779;-83